Time;durP1;ratioP1;P1;durP2;ratioP2;P2;SDS_P1;SDS_P2;PMS_P1;PMS_P2;Temp;Humidity;BMP_temperature;BMP_pressure;BME280_temperature;BME280_humidity;BME280_pressure;Samples;Min_cycle;Max_cycle;Signal;HPM_P1;HPM_P2
2022/03/12 00:02:04;;;;;;;1.45;1.25;;;18.20;66.30;;;;;;5063787;28;20037;-17
2022/03/12 00:04:30;;;;;;;1.38;1.27;;;18.20;66.40;;;;;;5064887;28;20101;-17
2022/03/12 00:06:55;;;;;;;1.20;1.10;;;18.10;66.30;;;;;;5061031;28;20148;-17
2022/03/12 00:09:22;;;;;;;1.60;1.50;;;18.10;66.30;;;;;;5063170;28;20043;-17
2022/03/12 00:11:51;;;;;;;1.58;1.15;;;18.20;66.40;;;;;;5063139;28;20044;-16
2022/03/12 00:14:20;;;;;;;3.13;1.23;;;18.10;66.40;;;;;;5066778;28;20045;-17
2022/03/12 00:16:49;;;;;;;1.10;1.10;;;18.10;66.50;;;;;;5063804;28;20927;-17
2022/03/12 00:19:14;;;;;;;1.08;1.02;;;18.10;66.50;;;;;;5065020;28;20056;-16
2022/03/12 00:21:42;;;;;;;0.90;0.90;;;18.10;66.50;;;;;;5067305;28;20037;-17
2022/03/12 00:24:09;;;;;;;1.20;1.10;;;18.10;66.30;;;;;;5066844;28;20044;-17
2022/03/12 00:26:39;;;;;;;1.20;1.10;;;18.10;66.40;;;;;;5063128;28;20049;-17
2022/03/12 00:29:07;;;;;;;1.48;1.20;;;18.10;66.40;;;;;;5069285;28;20040;-17
2022/03/12 00:31:33;;;;;;;1.10;1.00;;;18.10;66.40;;;;;;5069213;28;20051;-17
2022/03/12 00:33:59;;;;;;;2.55;1.05;;;18.10;66.30;;;;;;5076644;28;20041;-17
2022/03/12 00:36:25;;;;;;;1.67;1.50;;;18.10;66.20;;;;;;5059587;28;20055;-17
2022/03/12 00:38:51;;;;;;;0.90;0.90;;;18.10;66.10;;;;;;5058612;28;20127;-17
2022/03/12 00:41:17;;;;;;;0.80;0.80;;;18.10;66.10;;;;;;5058237;28;20048;-17
2022/03/12 00:43:42;;;;;;;0.82;0.80;;;18.10;66.10;;;;;;5070792;28;20055;-16
2022/03/12 00:46:08;;;;;;;1.00;1.00;;;18.10;66.00;;;;;;5072384;28;20048;-17
2022/03/12 00:48:34;;;;;;;0.93;0.90;;;18.10;66.00;;;;;;5088974;28;20048;-17
2022/03/12 00:51:00;;;;;;;2.05;1.02;;;18.10;66.00;;;;;;5085096;28;20071;-16
2022/03/12 00:53:25;;;;;;;0.70;0.70;;;18.10;66.10;;;;;;5065889;28;20048;-17
2022/03/12 00:55:51;;;;;;;0.80;0.80;;;18.00;66.20;;;;;;5076180;28;20048;-17
2022/03/12 00:58:17;;;;;;;0.80;0.80;;;18.00;66.20;;;;;;5071714;28;20056;-16
2022/03/12 01:00:42;;;;;;;1.20;1.10;;;18.00;66.20;;;;;;5074476;28;20056;-17
2022/03/12 01:03:08;;;;;;;0.75;0.73;;;18.00;66.30;;;;;;5071676;28;20447;-17
2022/03/12 01:05:51;;;;;;;1.20;0.73;;;18.00;66.20;;;;;;5077742;28;20501;-17
2022/03/12 01:08:17;;;;;;;0.93;0.77;;;17.90;66.30;;;;;;5073621;28;20048;-16
2022/03/12 01:10:43;;;;;;;0.90;0.90;;;17.90;66.40;;;;;;5067541;28;20186;-16
2022/03/12 01:13:08;;;;;;;0.88;0.88;;;17.90;66.30;;;;;;5073690;28;20559;-16
2022/03/12 01:15:34;;;;;;;0.98;0.90;;;17.90;66.10;;;;;;5061927;28;20064;-16
2022/03/12 01:18:01;;;;;;;1.10;1.00;;;17.90;66.00;;;;;;5071834;28;20044;-17
2022/03/12 01:20:26;;;;;;;0.93;0.90;;;17.90;66.00;;;;;;5070177;28;20048;-17
2022/03/12 01:22:52;;;;;;;0.88;0.88;;;17.90;66.10;;;;;;5074941;28;20055;-16
2022/03/12 01:25:17;;;;;;;0.60;0.60;;;17.90;66.00;;;;;;5063835;28;20052;-17
2022/03/12 01:27:43;;;;;;;0.75;0.75;;;17.90;65.80;;;;;;5060655;28;20055;-16
2022/03/12 01:30:09;;;;;;;0.80;0.80;;;17.90;65.90;;;;;;5075095;28;20040;-17
2022/03/12 01:32:35;;;;;;;0.88;0.88;;;17.90;66.10;;;;;;5068859;28;20072;-17
2022/03/12 01:35:02;;;;;;;0.68;0.68;;;17.80;66.00;;;;;;5062717;28;20059;-17
2022/03/12 01:37:27;;;;;;;0.63;0.60;;;17.90;65.90;;;;;;5059039;28;20476;-16
2022/03/12 01:39:53;;;;;;;0.70;0.60;;;17.90;65.80;;;;;;5075734;28;20086;-16
2022/03/12 01:42:21;;;;;;;0.68;0.68;;;17.80;65.90;;;;;;5061550;28;20044;-17
2022/03/12 01:44:46;;;;;;;0.95;0.70;;;17.90;66.00;;;;;;5066708;28;20052;-17
2022/03/12 01:47:15;;;;;;;0.73;0.73;;;17.90;65.90;;;;;;5067092;28;20055;-16
2022/03/12 01:49:41;;;;;;;0.50;0.50;;;17.90;65.70;;;;;;5064681;28;20536;-16
2022/03/12 01:52:07;;;;;;;0.52;0.50;;;17.90;65.70;;;;;;5056675;28;20479;-17
2022/03/12 01:54:33;;;;;;;0.60;0.60;;;17.90;65.70;;;;;;5057218;28;20045;-16
2022/03/12 01:56:59;;;;;;;0.70;0.70;;;17.90;65.60;;;;;;5064011;28;20136;-16
2022/03/12 01:59:25;;;;;;;1.35;0.60;;;17.80;65.50;;;;;;5057745;28;20514;-17
2022/03/12 02:01:54;;;;;;;0.43;0.43;;;17.80;65.60;;;;;;5069252;28;20041;-17
2022/03/12 02:04:21;;;;;;;1.35;0.73;;;17.80;65.50;;;;;;5061778;28;20052;-17
2022/03/12 02:06:47;;;;;;;0.57;0.57;;;17.90;65.60;;;;;;5076882;28;20037;-16
2022/03/12 02:09:14;;;;;;;0.60;0.60;;;17.90;65.60;;;;;;5067379;28;20049;-17
2022/03/12 02:11:40;;;;;;;0.60;0.52;;;17.90;65.50;;;;;;5066374;28;20519;-16
2022/03/12 02:14:13;;;;;;;0.60;0.60;;;17.80;65.60;;;;;;5078717;28;20040;-17
2022/03/12 02:16:49;;;;;;;0.75;0.73;;;17.80;65.60;;;;;;5068629;28;20050;-16
2022/03/12 02:19:14;;;;;;;0.60;0.60;;;17.80;65.70;;;;;;5061258;28;20068;-16
2022/03/12 02:21:49;;;;;;;1.33;0.57;;;17.80;65.40;;;;;;5070636;28;20044;-16
2022/03/12 02:24:16;;;;;;;1.23;0.65;;;17.80;65.40;;;;;;5057795;28;20049;-17
2022/03/12 02:26:42;;;;;;;0.57;0.57;;;17.80;65.50;;;;;;5058649;28;20383;-16
2022/03/12 02:29:11;;;;;;;0.70;0.70;;;17.80;65.30;;;;;;5067467;28;20055;-16
2022/03/12 02:31:37;;;;;;;0.60;0.60;;;17.80;65.20;;;;;;5070389;28;20495;-17
2022/03/12 02:34:04;;;;;;;0.65;0.45;;;17.80;65.40;;;;;;5064342;28;20047;-17
2022/03/12 02:36:29;;;;;;;0.70;0.60;;;17.80;65.40;;;;;;5057339;28;20037;-16
2022/03/12 02:38:55;;;;;;;0.40;0.40;;;17.80;65.30;;;;;;5067711;28;20524;-16
2022/03/12 02:41:22;;;;;;;1.48;0.43;;;17.80;65.40;;;;;;5060224;28;20060;-16
2022/03/12 02:43:48;;;;;;;0.80;0.43;;;17.80;65.50;;;;;;5067711;28;20049;-17
2022/03/12 02:46:14;;;;;;;0.52;0.40;;;17.80;65.40;;;;;;5054417;28;20049;-17
2022/03/12 02:48:40;;;;;;;0.50;0.50;;;17.80;65.50;;;;;;5065833;28;20040;-16
2022/03/12 02:51:06;;;;;;;0.50;0.50;;;17.80;65.30;;;;;;5075440;28;20128;-17
2022/03/12 02:53:32;;;;;;;0.55;0.38;;;17.70;65.40;;;;;;5068852;28;20049;-16
2022/03/12 02:55:58;;;;;;;0.45;0.40;;;17.70;65.40;;;;;;5058541;28;20041;-16
2022/03/12 02:58:24;;;;;;;0.68;0.50;;;17.70;65.40;;;;;;5070805;28;20128;-16
2022/03/12 03:00:49;;;;;;;0.40;0.40;;;17.70;65.40;;;;;;5075691;28;20055;-16
2022/03/12 03:03:15;;;;;;;0.50;0.50;;;17.70;65.30;;;;;;5068334;28;20094;-16
2022/03/12 03:05:46;;;;;;;0.73;0.60;;;17.80;65.30;;;;;;5063802;28;20417;-16
2022/03/12 03:08:15;;;;;;;0.60;0.60;;;17.80;65.30;;;;;;5058642;28;20074;-17
2022/03/12 03:10:43;;;;;;;0.52;0.52;;;17.80;65.20;;;;;;5066293;28;20127;-16
2022/03/12 03:13:18;;;;;;;0.50;0.50;;;17.80;65.20;;;;;;5076169;28;20556;-17
2022/03/12 03:15:46;;;;;;;0.50;0.50;;;17.70;65.10;;;;;;5075002;28;20047;-16
2022/03/12 03:18:13;;;;;;;0.32;0.30;;;17.80;65.10;;;;;;5072592;28;20125;-16
2022/03/12 03:20:39;;;;;;;0.55;0.55;;;17.80;65.10;;;;;;5059600;28;20540;-16
2022/03/12 03:23:06;;;;;;;0.77;0.63;;;17.80;65.10;;;;;;5054860;28;20048;-16
2022/03/12 03:25:32;;;;;;;0.98;0.52;;;17.70;65.00;;;;;;5066227;28;20045;-16
2022/03/12 03:27:57;;;;;;;0.40;0.40;;;17.80;65.10;;;;;;5055609;28;20053;-16
2022/03/12 03:30:23;;;;;;;0.50;0.50;;;17.70;65.00;;;;;;5054595;28;20486;-16
2022/03/12 03:32:49;;;;;;;0.30;0.30;;;17.70;65.00;;;;;;5067142;28;20041;-16
2022/03/12 03:35:14;;;;;;;0.73;0.50;;;17.70;65.00;;;;;;5072941;28;20051;-17
2022/03/12 03:37:40;;;;;;;0.50;0.47;;;17.70;65.00;;;;;;5055373;28;20049;-16
2022/03/12 03:40:07;;;;;;;0.38;0.38;;;17.70;65.00;;;;;;5057623;28;20117;-17
2022/03/12 03:42:33;;;;;;;0.50;0.40;;;17.70;65.00;;;;;;5055548;28;20458;-16
2022/03/12 03:45:02;;;;;;;0.50;0.50;;;17.70;64.90;;;;;;5055512;28;20033;-16
2022/03/12 03:47:28;;;;;;;0.38;0.30;;;17.70;64.90;;;;;;5075171;28;20051;-16
2022/03/12 03:49:54;;;;;;;0.50;0.43;;;17.70;64.90;;;;;;5071876;28;20045;-16
2022/03/12 03:52:20;;;;;;;1.17;0.55;;;17.70;65.00;;;;;;5074557;28;20037;-16
2022/03/12 03:54:46;;;;;;;0.32;0.32;;;17.70;64.80;;;;;;5075182;28;21003;-16
2022/03/12 03:57:17;;;;;;;0.52;0.50;;;17.70;64.90;;;;;;5069831;28;20047;-17
2022/03/12 03:59:42;;;;;;;0.50;0.40;;;17.70;64.80;;;;;;5075387;28;20036;-16
2022/03/12 04:02:08;;;;;;;0.73;0.50;;;17.70;64.80;;;;;;5069531;28;20107;-17
2022/03/12 04:04:38;;;;;;;0.47;0.32;;;17.60;64.80;;;;;;5063224;28;20532;-17
2022/03/12 04:07:04;;;;;;;0.52;0.43;;;17.60;64.80;;;;;;5061904;28;20109;-16
2022/03/12 04:09:30;;;;;;;0.75;0.70;;;17.70;64.70;;;;;;5054615;28;20037;-16
2022/03/12 04:11:56;;;;;;;0.55;0.55;;;17.70;64.70;;;;;;5056133;28;20048;-17
2022/03/12 04:14:21;;;;;;;0.93;0.38;;;17.70;64.70;;;;;;5077122;28;20045;-17
2022/03/12 04:16:47;;;;;;;0.52;0.43;;;17.70;64.60;;;;;;5056185;28;20088;-17
2022/03/12 04:19:14;;;;;;;0.50;0.40;;;17.70;64.80;;;;;;5061524;28;20053;-16
2022/03/12 04:21:40;;;;;;;0.52;0.50;;;17.70;64.80;;;;;;5055375;28;20497;-16
2022/03/12 04:24:06;;;;;;;0.75;0.75;;;17.70;64.80;;;;;;5067428;28;20041;-16
2022/03/12 04:26:35;;;;;;;0.40;0.40;;;17.60;64.70;;;;;;5064510;28;20128;-16
2022/03/12 04:29:02;;;;;;;0.60;0.50;;;17.60;64.70;;;;;;5055235;28;20033;-16
2022/03/12 04:31:28;;;;;;;0.50;0.30;;;17.70;64.70;;;;;;5071431;28;20061;-17
2022/03/12 04:33:54;;;;;;;0.40;0.40;;;17.70;64.80;;;;;;5058260;28;20048;-16
2022/03/12 04:36:19;;;;;;;0.45;0.30;;;17.60;64.60;;;;;;5056516;28;20079;-17
2022/03/12 04:38:46;;;;;;;0.65;0.30;;;17.60;64.70;;;;;;5070824;28;20047;-17
2022/03/12 04:41:12;;;;;;;0.40;0.40;;;17.70;64.60;;;;;;5074308;28;20048;-16
2022/03/12 04:43:38;;;;;;;0.38;0.38;;;17.60;64.60;;;;;;5074960;28;20497;-17
2022/03/12 04:46:04;;;;;;;0.47;0.30;;;17.60;64.60;;;;;;5068007;28;20408;-16
2022/03/12 04:48:29;;;;;;;0.85;0.50;;;17.60;64.70;;;;;;5059536;28;20118;-16
2022/03/12 04:50:56;;;;;;;0.50;0.40;;;17.60;64.60;;;;;;5062689;28;20118;-16
2022/03/12 04:53:22;;;;;;;0.30;0.30;;;17.60;64.60;;;;;;5054146;28;20041;-17
2022/03/12 04:55:48;;;;;;;0.60;0.40;;;17.60;64.70;;;;;;5066333;28;20049;-16
2022/03/12 04:58:14;;;;;;;0.40;0.30;;;17.60;64.80;;;;;;5054087;28;20057;-17
2022/03/12 05:00:40;;;;;;;0.38;0.30;;;17.60;64.70;;;;;;5060911;28;20501;-17
2022/03/12 05:03:12;;;;;;;0.50;0.30;;;17.60;64.80;;;;;;5070931;28;20039;-16
2022/03/12 05:05:42;;;;;;;0.60;0.35;;;17.60;65.00;;;;;;5062175;28;20076;-16
2022/03/12 05:08:10;;;;;;;0.50;0.40;;;17.60;64.90;;;;;;5058080;28;20045;-16
2022/03/12 05:10:36;;;;;;;0.30;0.30;;;17.60;64.70;;;;;;5058835;28;20055;-16
2022/03/12 05:13:01;;;;;;;0.40;0.40;;;17.60;64.70;;;;;;5058011;28;20128;-16
2022/03/12 05:15:36;;;;;;;0.43;0.40;;;17.60;64.80;;;;;;5057694;28;20045;-16
2022/03/12 05:18:06;;;;;;;0.60;0.60;;;17.60;64.90;;;;;;5077742;28;20378;-16
2022/03/12 05:20:33;;;;;;;0.40;0.38;;;17.60;64.80;;;;;;5067340;28;20053;-16
2022/03/12 05:22:58;;;;;;;0.52;0.28;;;17.60;64.80;;;;;;5063006;28;20128;-16
2022/03/12 05:25:25;;;;;;;0.40;0.40;;;17.60;64.80;;;;;;5057392;28;20118;-17
2022/03/12 05:27:52;;;;;;;0.30;0.30;;;17.60;64.70;;;;;;5059524;28;20036;-16
2022/03/12 05:30:18;;;;;;;0.35;0.35;;;17.60;64.70;;;;;;5057997;28;20049;-17
2022/03/12 05:32:43;;;;;;;0.82;0.57;;;17.60;64.80;;;;;;5068525;28;20074;-16
2022/03/12 05:35:09;;;;;;;0.28;0.28;;;17.50;64.70;;;;;;5069590;28;20511;-16
2022/03/12 05:37:36;;;;;;;0.47;0.32;;;17.50;64.70;;;;;;5056822;28;20072;-17
2022/03/12 05:40:04;;;;;;;0.50;0.30;;;17.50;64.80;;;;;;5070583;28;20634;-16
2022/03/12 05:42:32;;;;;;;0.35;0.30;;;17.60;64.80;;;;;;5072676;28;20063;-16
2022/03/12 05:44:58;;;;;;;0.30;0.30;;;17.60;64.70;;;;;;5057650;28;20060;-16
2022/03/12 05:47:24;;;;;;;0.65;0.45;;;17.50;64.60;;;;;;5069349;28;20037;-17
2022/03/12 05:49:50;;;;;;;0.45;0.40;;;17.50;64.70;;;;;;5071970;28;20029;-17
2022/03/12 05:52:18;;;;;;;0.40;0.30;;;17.50;64.80;;;;;;5091523;28;20527;-17
2022/03/12 05:54:45;;;;;;;0.50;0.50;;;17.50;64.70;;;;;;5074865;28;20044;-16
2022/03/12 05:57:11;;;;;;;0.52;0.50;;;17.50;64.70;;;;;;5077336;28;20519;-17
2022/03/12 05:59:36;;;;;;;0.30;0.10;;;17.50;64.70;;;;;;5061387;28;20524;-17
2022/03/12 06:02:02;;;;;;;0.43;0.40;;;17.50;64.80;;;;;;5077371;28;20049;-17
2022/03/12 06:04:28;;;;;;;0.30;0.30;;;17.50;64.70;;;;;;5064288;28;20056;-17
2022/03/12 06:06:54;;;;;;;0.55;0.40;;;17.50;64.70;;;;;;5069850;28;20478;-17
2022/03/12 06:09:19;;;;;;;0.35;0.35;;;17.50;64.70;;;;;;5075153;28;20064;-17
2022/03/12 06:11:45;;;;;;;0.40;0.30;;;17.50;64.80;;;;;;5062392;28;20048;-16
2022/03/12 06:14:16;;;;;;;0.40;0.30;;;17.50;64.80;;;;;;5061464;28;20048;-16
2022/03/12 06:16:48;;;;;;;0.30;0.30;;;17.40;64.60;;;;;;5057470;28;20589;-16
2022/03/12 06:19:15;;;;;;;0.85;0.50;;;17.40;64.80;;;;;;5058897;28;20193;-17
2022/03/12 06:21:41;;;;;;;0.60;0.30;;;17.50;64.80;;;;;;5060045;28;20098;-17
2022/03/12 06:24:07;;;;;;;0.35;0.35;;;17.50;64.80;;;;;;5057027;28;20128;-16
2022/03/12 06:26:35;;;;;;;0.50;0.50;;;17.50;64.60;;;;;;5056365;28;20437;-16
2022/03/12 06:29:01;;;;;;;0.28;0.20;;;17.50;64.60;;;;;;5066288;28;20041;-17
2022/03/12 06:31:27;;;;;;;0.45;0.40;;;17.50;64.70;;;;;;5062471;28;20044;-16
2022/03/12 06:33:54;;;;;;;0.85;0.30;;;17.50;64.70;;;;;;5067218;28;20124;-16
2022/03/12 06:36:21;;;;;;;0.38;0.30;;;17.50;64.60;;;;;;5063671;28;20068;-17
2022/03/12 06:38:47;;;;;;;0.35;0.30;;;17.50;64.70;;;;;;5062481;28;20056;-16
2022/03/12 06:41:13;;;;;;;0.30;0.30;;;17.50;64.60;;;;;;5065639;28;20089;-17
2022/03/12 06:43:42;;;;;;;0.32;0.25;;;17.50;64.60;;;;;;5064004;28;20041;-16
2022/03/12 06:46:09;;;;;;;0.35;0.30;;;17.50;64.60;;;;;;5064656;28;20045;-16
2022/03/12 06:48:35;;;;;;;0.40;0.40;;;17.50;64.60;;;;;;5064531;28;20447;-17
2022/03/12 06:51:01;;;;;;;0.93;0.55;;;17.50;64.60;;;;;;5064036;28;20058;-16
2022/03/12 06:53:27;;;;;;;0.57;0.30;;;17.40;64.70;;;;;;5063109;28;20093;-16
2022/03/12 06:55:53;;;;;;;0.45;0.35;;;17.40;64.80;;;;;;5066583;28;20135;-16
2022/03/12 06:58:19;;;;;;;0.50;0.30;;;17.40;64.70;;;;;;5075479;28;20599;-17
2022/03/12 07:00:44;;;;;;;0.65;0.30;;;17.40;64.70;;;;;;5072792;28;20424;-16
2022/03/12 07:03:10;;;;;;;0.60;0.45;;;17.40;64.60;;;;;;5072582;28;20515;-16
2022/03/12 07:05:36;;;;;;;0.57;0.22;;;17.40;64.60;;;;;;5070721;28;20037;-16
2022/03/12 07:08:02;;;;;;;0.28;0.20;;;17.40;64.60;;;;;;5059073;28;20415;-16
2022/03/12 07:10:29;;;;;;;0.55;0.40;;;17.40;64.60;;;;;;5062616;28;20051;-16
2022/03/12 07:12:54;;;;;;;0.38;0.30;;;17.40;64.70;;;;;;5063226;28;20041;-16
2022/03/12 07:15:21;;;;;;;0.45;0.40;;;17.40;64.70;;;;;;5069349;28;20098;-17
2022/03/12 07:17:47;;;;;;;0.88;0.40;;;17.40;64.60;;;;;;5073669;28;20114;-16
2022/03/12 07:20:17;;;;;;;0.45;0.30;;;17.40;64.50;;;;;;4840344;28;10001110;-16
2022/03/12 07:22:42;;;;;;;0.55;0.40;;;17.40;64.60;;;;;;5067715;28;20268;-17
2022/03/12 07:25:09;;;;;;;0.20;0.20;;;17.40;65.00;;;;;;5070518;28;20068;-16
2022/03/12 07:27:34;;;;;;;0.30;0.20;;;17.40;65.00;;;;;;5068372;28;20049;-16
2022/03/12 07:30:00;;;;;;;0.70;0.43;;;17.40;64.70;;;;;;5069155;28;20082;-16
2022/03/12 07:32:28;;;;;;;0.30;0.22;;;17.40;64.60;;;;;;5072061;28;20046;-17
2022/03/12 07:34:54;;;;;;;1.90;0.50;;;17.40;64.60;;;;;;5056813;28;20064;-16
2022/03/12 07:37:21;;;;;;;2.47;0.90;;;17.40;64.50;;;;;;4708976;28;10000159;-16
2022/03/12 07:39:47;;;;;;;1.80;1.23;;;17.40;64.70;;;;;;5057546;28;20055;-16
2022/03/12 07:42:12;;;;;;;1.40;1.20;;;17.40;64.60;;;;;;5066612;28;20410;-16
2022/03/12 07:44:39;;;;;;;3.13;1.10;;;17.40;64.60;;;;;;5062635;28;20040;-16
2022/03/12 07:47:05;;;;;;;1.35;0.80;;;17.40;64.50;;;;;;5070427;28;20041;-16
2022/03/12 07:49:30;;;;;;;1.05;0.70;;;17.40;64.50;;;;;;5057986;28;20052;-16
2022/03/12 07:51:56;;;;;;;0.90;0.70;;;17.40;64.50;;;;;;5060274;28;20049;-16
2022/03/12 07:54:23;;;;;;;2.08;0.90;;;17.30;64.50;;;;;;5064660;28;20036;-17
2022/03/12 07:56:49;;;;;;;1.20;0.88;;;17.30;64.40;;;;;;5064482;28;20642;-16
2022/03/12 07:59:14;;;;;;;1.67;0.90;;;17.40;64.50;;;;;;5064269;28;20541;-16
2022/03/12 08:01:40;;;;;;;1.83;1.15;;;17.40;64.40;;;;;;5061763;28;20045;-16
2022/03/12 08:04:06;;;;;;;1.17;1.08;;;17.40;64.50;;;;;;5064776;28;20064;-16
2022/03/12 08:06:33;;;;;;;2.85;1.25;;;17.40;64.50;;;;;;5060291;28;20044;-16
2022/03/12 08:08:59;;;;;;;1.30;1.20;;;17.40;64.40;;;;;;5073061;28;20055;-16
2022/03/12 08:11:25;;;;;;;1.23;1.02;;;17.40;64.40;;;;;;5060138;28;20045;-17
2022/03/12 08:13:51;;;;;;;1.92;1.45;;;17.40;64.30;;;;;;5067199;28;20124;-16
2022/03/12 08:16:17;;;;;;;2.60;2.30;;;17.50;64.60;;;;;;5057691;28;20593;-16
2022/03/12 08:18:43;;;;;;;2.70;2.50;;;17.50;65.40;;;;;;5057693;28;20107;-16
2022/03/12 08:21:10;;;;;;;5.35;2.13;;;17.50;66.00;;;;;;5058699;28;20430;-16
2022/03/12 08:23:36;;;;;;;2.72;2.53;;;17.60;66.00;;;;;;5080510;28;20152;-16
2022/03/12 08:26:02;;;;;;;5.15;3.08;;;17.60;65.70;;;;;;5063759;28;20147;-16
2022/03/12 08:28:28;;;;;;;3.38;3.08;;;17.60;65.90;;;;;;5070308;28;20078;-17
2022/03/12 08:30:54;;;;;;;3.42;3.13;;;17.60;65.90;;;;;;5061987;28;20044;-16
2022/03/12 08:33:20;;;;;;;3.15;2.90;;;17.60;66.10;;;;;;5067881;28;20048;-16
2022/03/12 08:35:46;;;;;;;6.50;3.05;;;17.60;66.30;;;;;;5067523;28;20497;-16
2022/03/12 08:38:12;;;;;;;2.78;2.58;;;17.70;66.20;;;;;;5073676;28;20051;-17
2022/03/12 08:40:38;;;;;;;3.08;2.63;;;17.60;66.50;;;;;;5074181;28;20048;-17
2022/03/12 08:43:03;;;;;;;3.58;2.78;;;17.70;66.60;;;;;;5069623;28;20098;-17
2022/03/12 08:45:30;;;;;;;2.72;2.28;;;17.70;66.50;;;;;;5062746;28;20586;-16
2022/03/12 08:47:55;;;;;;;2.42;2.22;;;17.70;66.10;;;;;;4713338;28;9999827;-16
2022/03/12 08:50:21;;;;;;;3.83;2.70;;;17.80;66.10;;;;;;5067073;28;20044;-17
2022/03/12 08:52:47;;;;;;;3.42;2.40;;;17.70;66.00;;;;;;5077389;28;20048;-17
2022/03/12 08:55:13;;;;;;;2.50;2.30;;;17.80;65.90;;;;;;5070821;28;20067;-17
2022/03/12 08:57:39;;;;;;;2.30;2.17;;;17.80;66.00;;;;;;5068668;28;20052;-16
2022/03/12 09:00:06;;;;;;;2.50;2.30;;;17.80;65.90;;;;;;5068835;28;20131;-17
2022/03/12 09:02:35;;;;;;;2.40;2.20;;;17.80;66.00;;;;;;5071818;28;20049;-17
2022/03/12 09:05:04;;;;;;;3.13;2.00;;;17.80;65.80;;;;;;5074429;28;20044;-17
2022/03/12 09:07:30;;;;;;;2.08;1.98;;;17.80;65.90;;;;;;5071283;28;20037;-17
2022/03/12 09:09:56;;;;;;;2.50;2.30;;;17.80;65.70;;;;;;5065363;28;20607;-17
2022/03/12 09:12:22;;;;;;;2.70;2.50;;;17.80;65.40;;;;;;5065642;28;20060;-17
2022/03/12 09:14:48;;;;;;;2.35;1.90;;;17.90;65.50;;;;;;5063676;28;20029;-17
2022/03/12 09:17:14;;;;;;;2.08;1.88;;;18.00;65.60;;;;;;5061146;28;20049;-17
2022/03/12 09:19:39;;;;;;;2.65;2.20;;;17.90;65.70;;;;;;5072335;28;20059;-17
2022/03/12 09:22:05;;;;;;;2.95;2.42;;;17.90;65.70;;;;;;5072590;28;20082;-17
2022/03/12 09:24:30;;;;;;;1.98;1.88;;;17.90;65.50;;;;;;5071430;28;20538;-17
2022/03/12 09:26:56;;;;;;;2.40;2.13;;;17.90;65.30;;;;;;5067851;28;20060;-17
2022/03/12 09:29:22;;;;;;;2.00;1.90;;;18.00;65.40;;;;;;5073094;28;20036;-17
2022/03/12 09:31:48;;;;;;;2.20;1.88;;;18.00;65.10;;;;;;5066106;28;20050;-17
2022/03/12 09:34:14;;;;;;;1.85;1.75;;;18.10;66.70;;;;;;5071117;28;20041;-16
2022/03/12 09:36:40;;;;;;;1.67;1.52;;;18.10;66.40;;;;;;5052850;28;20095;-17
2022/03/12 09:39:06;;;;;;;1.67;1.52;;;18.10;65.70;;;;;;5068688;28;20058;-17
2022/03/12 09:41:38;;;;;;;3.95;1.80;;;18.20;65.60;;;;;;5074242;28;20048;-17
2022/03/12 09:44:07;;;;;;;2.10;1.90;;;18.20;65.10;;;;;;5063264;28;20053;-17
2022/03/12 09:46:32;;;;;;;2.03;1.80;;;18.30;66.70;;;;;;5072286;28;20524;-17
2022/03/12 09:48:58;;;;;;;2.08;1.67;;;18.30;65.40;;;;;;5077417;28;20045;-17
2022/03/12 09:51:28;;;;;;;1.63;1.52;;;18.40;65.10;;;;;;5076170;28;20048;-17
2022/03/12 09:54:03;;;;;;;2.20;1.42;;;18.30;64.90;;;;;;5060815;28;20048;-16
2022/03/12 09:56:29;;;;;;;2.03;1.70;;;18.40;64.90;;;;;;5059752;28;20186;-17
2022/03/12 09:58:55;;;;;;;2.13;1.55;;;18.40;64.70;;;;;;5075803;28;20044;-17
2022/03/12 10:01:21;;;;;;;2.20;1.88;;;18.40;65.00;;;;;;5076865;28;20582;-16
2022/03/12 10:03:46;;;;;;;1.60;1.40;;;18.40;64.90;;;;;;5070985;28;20070;-17
2022/03/12 10:06:15;;;;;;;1.80;1.70;;;18.40;65.90;;;;;;5073018;28;20048;-17
2022/03/12 10:08:41;;;;;;;1.42;1.33;;;18.40;65.00;;;;;;5067197;28;20041;-16
2022/03/12 10:11:07;;;;;;;1.80;1.45;;;18.50;65.10;;;;;;5062987;28;20052;-16
2022/03/12 10:13:32;;;;;;;3.15;1.40;;;18.40;64.80;;;;;;5071348;28;20105;-16
2022/03/12 10:15:59;;;;;;;1.60;1.50;;;18.50;65.00;;;;;;5062695;28;20076;-17
2022/03/12 10:18:25;;;;;;;1.55;1.40;;;18.50;64.80;;;;;;5058427;28;20037;-17
2022/03/12 10:20:51;;;;;;;1.33;1.23;;;18.50;64.70;;;;;;5060381;28;20060;-17
2022/03/12 10:23:16;;;;;;;1.50;1.40;;;18.60;64.60;;;;;;5066146;28;20045;-17
2022/03/12 10:25:42;;;;;;;1.73;1.63;;;18.60;64.50;;;;;;5054436;28;20183;-17
2022/03/12 10:28:07;;;;;;;1.55;1.45;;;18.60;64.20;;;;;;5056180;28;20620;-16
2022/03/12 10:30:34;;;;;;;1.75;1.52;;;18.70;64.20;;;;;;5063347;28;20047;-18
2022/03/12 10:33:00;;;;;;;1.65;1.55;;;18.70;64.20;;;;;;5059111;28;20049;-17
2022/03/12 10:35:32;;;;;;;1.48;1.38;;;18.70;64.00;;;;;;5062150;28;20501;-17
2022/03/12 10:38:00;;;;;;;2.28;1.48;;;18.70;64.00;;;;;;5061814;28;20055;-17
2022/03/12 10:40:26;;;;;;;1.45;1.35;;;18.70;64.00;;;;;;5066321;28;20045;-17
2022/03/12 10:43:05;;;;;;;1.67;1.15;;;18.70;64.00;;;;;;5063215;28;20501;-19
2022/03/12 10:45:37;;;;;;;1.25;1.15;;;18.70;64.00;;;;;;5064665;28;20071;-17
2022/03/12 10:48:03;;;;;;;0.90;0.90;;;18.70;63.90;;;;;;5063639;28;20041;-16
2022/03/12 10:50:34;;;;;;;1.35;1.25;;;18.70;63.90;;;;;;5072682;28;20055;-17
2022/03/12 10:53:05;;;;;;;1.73;1.33;;;18.70;63.90;;;;;;5064714;28;20063;-16
2022/03/12 10:55:33;;;;;;;2.17;1.38;;;18.70;63.90;;;;;;5061772;28;20051;-17
2022/03/12 10:58:05;;;;;;;1.40;1.30;;;18.80;64.00;;;;;;5062347;28;20048;-16
2022/03/12 11:00:33;;;;;;;2.80;1.15;;;18.80;63.90;;;;;;5069290;28;20087;-16
2022/03/12 11:03:00;;;;;;;1.05;0.93;;;18.80;63.80;;;;;;5055553;28;20616;-16
2022/03/12 11:05:32;;;;;;;1.15;1.05;;;18.80;63.80;;;;;;5058124;28;20129;-16
2022/03/12 11:08:18;;;;;;;1.10;1.00;;;18.90;63.80;;;;;;4706033;28;10000587;-16
2022/03/12 11:10:54;;;;;;;1.25;1.15;;;18.80;63.80;;;;;;5066986;28;20064;-17
2022/03/12 11:13:25;;;;;;;1.42;1.33;;;18.80;63.70;;;;;;5070698;28;20134;-16
2022/03/12 11:16:12;;;;;;;1.35;1.02;;;18.90;63.80;;;;;;5069447;28;20040;-16
2022/03/12 11:18:38;;;;;;;1.40;1.30;;;18.90;63.80;;;;;;5063768;28;20053;-16
2022/03/12 11:21:04;;;;;;;1.23;1.13;;;18.90;63.80;;;;;;5070365;28;20049;-16
2022/03/12 11:23:30;;;;;;;2.35;1.00;;;18.90;63.70;;;;;;5071166;28;20574;-16
2022/03/12 11:25:59;;;;;;;2.95;1.17;;;19.00;63.80;;;;;;5071226;28;20044;-16
2022/03/12 11:28:25;;;;;;;4.25;1.10;;;19.00;63.70;;;;;;5065476;28;20059;-16
2022/03/12 11:30:51;;;;;;;1.17;1.08;;;19.00;63.80;;;;;;5070308;28;21439;-16
2022/03/12 11:33:17;;;;;;;1.83;1.20;;;19.00;64.00;;;;;;5070020;28;20049;-16
2022/03/12 11:35:44;;;;;;;0.93;0.93;;;19.00;64.20;;;;;;5066909;28;20625;-16
2022/03/12 11:38:15;;;;;;;1.13;1.02;;;19.00;64.10;;;;;;5064134;28;20139;-16
2022/03/12 11:40:45;;;;;;;1.95;1.10;;;19.00;64.20;;;;;;5071252;28;20044;-17
2022/03/12 11:43:31;;;;;;;0.80;0.80;;;19.10;64.20;;;;;;5070842;28;20076;-16
2022/03/12 11:45:59;;;;;;;0.88;0.77;;;19.10;64.30;;;;;;5059715;28;20045;-16
2022/03/12 11:48:28;;;;;;;1.00;0.90;;;19.00;64.40;;;;;;5057377;28;20051;-16
2022/03/12 11:50:54;;;;;;;1.30;1.10;;;19.10;64.40;;;;;;5061457;28;20037;-16
2022/03/12 11:53:19;;;;;;;1.20;1.10;;;19.10;64.30;;;;;;5061031;28;20060;-16
2022/03/12 11:55:51;;;;;;;2.17;1.00;;;19.10;64.30;;;;;;5056715;28;20639;-16
2022/03/12 11:58:17;;;;;;;1.65;1.35;;;19.10;64.20;;;;;;5062555;28;20110;-16
2022/03/12 12:00:47;;;;;;;1.33;0.90;;;19.10;64.20;;;;;;5062088;28;20047;-16
2022/03/12 12:03:14;;;;;;;0.93;0.88;;;19.10;64.10;;;;;;5062661;28;20051;-17
2022/03/12 12:05:43;;;;;;;1.20;1.02;;;19.20;64.10;;;;;;5064985;28;20518;-16
2022/03/12 12:08:12;;;;;;;1.00;0.90;;;19.10;64.10;;;;;;5056521;28;20055;-16
2022/03/12 12:10:41;;;;;;;1.20;0.95;;;19.20;64.00;;;;;;5067660;28;20044;-18
2022/03/12 12:13:06;;;;;;;1.00;0.93;;;19.20;64.00;;;;;;5075546;28;20139;-16
2022/03/12 12:15:36;;;;;;;1.00;0.80;;;19.20;64.00;;;;;;5062127;28;20144;-16
2022/03/12 12:18:02;;;;;;;2.00;1.00;;;19.20;63.80;;;;;;5069203;28;20048;-17
2022/03/12 12:20:29;;;;;;;0.98;0.88;;;19.20;63.90;;;;;;5070437;28;20071;-16
2022/03/12 12:22:56;;;;;;;0.82;0.60;;;19.20;64.00;;;;;;5073326;28;20142;-16
2022/03/12 12:25:21;;;;;;;2.40;0.88;;;19.20;63.90;;;;;;5074443;28;20073;-16
2022/03/12 12:27:51;;;;;;;1.30;0.88;;;19.20;64.10;;;;;;5073308;28;20638;-16
2022/03/12 12:30:38;;;;;;;1.85;0.63;;;19.20;64.00;;;;;;5067806;28;20133;-17
2022/03/12 12:33:24;;;;;;;3.85;1.25;;;19.20;64.10;;;;;;5072423;28;20045;-16
2022/03/12 12:36:10;;;;;;;2.15;0.90;;;19.20;64.20;;;;;;5063670;28;20057;-18
2022/03/12 12:38:36;;;;;;;0.85;0.82;;;19.20;64.30;;;;;;5070562;28;20052;-18
2022/03/12 12:41:03;;;;;;;1.15;0.77;;;19.20;64.10;;;;;;5073398;28;20053;-16
2022/03/12 12:43:39;;;;;;;2.15;0.80;;;19.30;64.10;;;;;;5065982;28;20105;-16
2022/03/12 12:46:12;;;;;;;0.77;0.70;;;19.30;64.00;;;;;;5068993;28;20052;-17